Time;durP1;ratioP1;P1;durP2;ratioP2;P2;SDS_P1;SDS_P2;PMS_P1;PMS_P2;Temp;Humidity;BMP_temperature;BMP_pressure;BME280_temperature;BME280_humidity;BME280_pressure;Samples;Min_cycle;Max_cycle;Signal;HPM_P1;HPM_P2
2022/10/30 00:00:38;;;;;;;7.88;3.60;;;16.90;99.90;;;;;;7390091;19;20172;-83
2022/10/30 00:03:04;;;;;;;9.15;4.00;;;16.90;99.90;;;;;;7388594;19;20162;-82
2022/10/30 00:05:30;;;;;;;5.95;3.65;;;16.90;99.90;;;;;;7390542;19;20162;-82
2022/10/30 00:07:56;;;;;;;9.40;3.80;;;17.00;99.90;;;;;;7387682;19;20143;-81
2022/10/30 00:10:23;;;;;;;7.10;4.10;;;17.10;99.90;;;;;;7389452;19;20480;-81
2022/10/30 00:12:49;;;;;;;9.77;4.60;;;16.70;99.90;;;;;;7389989;19;20134;-82
2022/10/30 00:15:14;;;;;;;8.27;4.45;;;16.80;99.90;;;;;;7387656;19;20142;-80
2022/10/30 00:17:40;;;;;;;10.75;4.25;;;16.80;99.90;;;;;;7390244;19;20642;-82
2022/10/30 00:20:07;;;;;;;7.57;4.30;;;16.90;99.90;;;;;;7385874;19;20174;-82
2022/10/30 00:22:34;;;;;;;10.80;4.40;;;16.80;99.90;;;;;;7391805;19;20143;-81
2022/10/30 00:25:00;;;;;;;10.60;4.15;;;16.60;99.90;;;;;;7390709;19;20168;-83
2022/10/30 00:27:26;;;;;;;6.97;3.63;;;16.50;99.90;;;;;;7387688;19;20139;-83
2022/10/30 00:29:52;;;;;;;7.90;4.20;;;16.40;99.90;;;;;;7388170;19;20335;-83
2022/10/30 00:32:18;;;;;;;8.93;5.03;;;16.30;99.90;;;;;;7388968;19;20162;-82
2022/10/30 00:34:44;;;;;;;12.15;6.30;;;16.50;99.90;;;;;;7390245;19;20142;-80
2022/10/30 00:37:09;;;;;;;14.38;6.65;;;16.80;99.90;;;;;;7388410;19;20615;-82
2022/10/30 00:39:35;;;;;;;11.88;6.95;;;17.00;99.90;;;;;;7389696;19;20142;-83
2022/10/30 00:42:01;;;;;;;12.38;6.53;;;17.10;99.90;;;;;;7387788;19;20130;-83
2022/10/30 00:44:44;;;;;;;11.00;7.15;;;17.10;99.90;;;;;;7386067;19;20138;-83
2022/10/30 00:47:33;;;;;;;13.70;7.43;;;17.00;99.90;;;;;;7389754;19;20147;-77
2022/10/30 00:50:16;;;;;;;14.40;6.75;;;17.00;99.90;;;;;;7396696;19;20134;-83
2022/10/30 00:52:51;;;;;;;12.80;6.35;;;17.00;99.90;;;;;;7397178;19;20142;-83
2022/10/30 00:55:22;;;;;;;10.27;6.03;;;17.00;99.90;;;;;;7394404;19;20150;-83
2022/10/30 00:57:49;;;;;;;10.40;6.38;;;17.10;99.90;;;;;;7397329;19;20145;-83
2022/10/30 01:00:16;;;;;;;12.93;7.63;;;17.10;99.90;;;;;;7395050;19;20149;-83
2022/10/30 01:02:42;;;;;;;13.43;6.25;;;16.90;99.90;;;;;;7396438;19;20154;-84
2022/10/30 01:05:11;;;;;;;13.98;6.50;;;17.00;99.90;;;;;;7391423;19;20478;-81
2022/10/30 01:07:37;;;;;;;12.23;6.85;;;16.90;99.90;;;;;;7395710;19;20154;-82
2022/10/30 01:10:03;;;;;;;13.93;6.63;;;16.90;99.90;;;;;;7394292;19;20139;-82
2022/10/30 01:12:28;;;;;;;10.35;5.88;;;16.90;99.90;;;;;;7396526;19;20138;-83
2022/10/30 01:14:58;;;;;;;13.88;6.65;;;16.90;99.90;;;;;;7394447;19;20131;-82
2022/10/30 01:18:04;;;;;;;10.50;5.90;;;16.90;99.90;;;;;;7393794;19;20522;-82
2022/10/30 01:20:38;;;;;;;13.20;6.22;;;16.90;99.90;;;;;;7389183;19;20253;-78
2022/10/30 01:23:32;;;;;;;15.65;5.97;;;16.90;99.90;;;;;;7397467;19;20147;-83
2022/10/30 01:26:23;;;;;;;11.18;6.13;;;16.80;99.90;;;;;;7397061;19;20153;-82
2022/10/30 01:29:04;;;;;;;13.05;5.68;;;16.70;99.90;;;;;;7394425;19;20185;-81
2022/10/30 01:31:34;;;;;;;8.68;5.10;;;16.80;99.90;;;;;;7396527;19;20631;-82
2022/10/30 01:34:09;;;;;;;8.82;6.10;;;16.80;99.90;;;;;;7394516;19;20608;-82
2022/10/30 01:37:00;;;;;;;11.88;5.32;;;16.60;99.90;;;;;;7396160;19;20155;-81
2022/10/30 01:39:30;;;;;;;12.20;5.75;;;16.60;99.90;;;;;;7394079;19;20161;-83
2022/10/30 01:41:56;;;;;;;9.68;5.40;;;16.50;99.90;;;;;;7394551;19;20154;-80
2022/10/30 01:44:29;;;;;;;8.75;4.90;;;16.40;99.90;;;;;;7394459;19;20454;-82
2022/10/30 01:47:19;;;;;;;12.82;6.00;;;16.10;99.90;;;;;;7396186;19;20149;-82
2022/10/30 01:49:51;;;;;;;12.70;4.90;;;16.20;99.90;;;;;;7396926;19;20139;-82
2022/10/30 01:52:27;;;;;;;11.10;5.75;;;16.20;99.90;;;;;;7392506;19;20146;-83
2022/10/30 01:55:31;;;;;;;9.95;4.72;;;16.20;99.90;;;;;;7396732;19;20151;-82
2022/10/30 01:58:13;;;;;;;11.27;4.85;;;16.00;99.90;;;;;;7394212;19;20168;-81
2022/10/30 02:00:42;;;;;;;14.02;6.07;;;16.10;99.90;;;;;;7389795;19;20667;-81
2022/10/30 02:03:08;;;;;;;8.00;5.00;;;16.10;99.90;;;;;;7391340;19;20150;-82
2022/10/30 02:05:47;;;;;;;9.35;4.97;;;16.10;99.90;;;;;;7394040;19;20131;-83
2022/10/30 02:08:13;;;;;;;8.75;5.10;;;16.10;99.90;;;;;;7394123;19;20567;-82
2022/10/30 02:10:41;;;;;;;10.13;5.00;;;15.90;99.90;;;;;;7390907;19;20149;-82
2022/10/30 02:13:07;;;;;;;11.75;5.53;;;16.10;99.90;;;;;;7392903;19;20147;-81
2022/10/30 02:15:33;;;;;;;10.70;5.35;;;16.40;99.90;;;;;;7392997;19;20157;-84
2022/10/30 02:17:59;;;;;;;10.98;5.25;;;16.20;99.90;;;;;;7391573;19;20142;-82
2022/10/30 02:20:25;;;;;;;9.20;4.57;;;16.40;99.90;;;;;;7390090;19;20182;-84
2022/10/30 02:22:51;;;;;;;9.20;4.70;;;16.50;99.90;;;;;;7394143;19;20635;-83
2022/10/30 02:25:16;;;;;;;10.27;5.25;;;16.30;99.90;;;;;;7392564;19;20161;-82
2022/10/30 02:27:42;;;;;;;10.68;5.70;;;16.60;99.90;;;;;;7395285;19;20146;-83
2022/10/30 02:30:08;;;;;;;11.63;4.65;;;16.70;99.90;;;;;;7394070;19;20146;-82
2022/10/30 02:32:34;;;;;;;9.45;4.93;;;16.50;99.90;;;;;;7396073;19;20552;-83
2022/10/30 02:35:00;;;;;;;9.43;4.93;;;16.20;99.90;;;;;;7395078;19;20157;-81
2022/10/30 02:37:26;;;;;;;9.20;4.90;;;16.30;99.90;;;;;;7392795;19;20209;-80
2022/10/30 02:39:52;;;;;;;11.00;5.10;;;16.40;99.90;;;;;;7393266;19;20917;-83
2022/10/30 02:42:18;;;;;;;8.85;5.75;;;16.60;99.90;;;;;;7397158;19;20785;-82
2022/10/30 02:44:44;;;;;;;9.25;5.13;;;16.50;99.90;;;;;;7400538;19;20139;-82
2022/10/30 02:47:10;;;;;;;10.63;5.53;;;16.60;99.90;;;;;;7398443;19;20127;-82
2022/10/30 02:49:36;;;;;;;9.40;4.82;;;16.70;99.90;;;;;;7399104;19;20150;-81
2022/10/30 02:52:02;;;;;;;9.73;5.15;;;16.60;99.90;;;;;;7398096;19;20608;-80
2022/10/30 02:54:27;;;;;;;14.23;6.10;;;16.30;99.90;;;;;;7399150;19;20149;-82
2022/10/30 02:56:53;;;;;;;10.07;4.85;;;15.90;99.90;;;;;;7393989;19;20153;-82
2022/10/30 02:59:19;;;;;;;12.80;5.47;;;15.70;99.90;;;;;;7391804;19;20157;-82
2022/10/30 03:01:45;;;;;;;8.00;5.28;;;15.90;99.90;;;;;;7390546;19;20246;-84
2022/10/30 03:04:11;;;;;;;8.80;5.18;;;16.00;99.90;;;;;;7391041;19;20151;-83
2022/10/30 03:06:36;;;;;;;10.10;4.72;;;16.20;99.90;;;;;;7391533;19;20142;-83
2022/10/30 03:09:02;;;;;;;13.95;5.28;;;15.90;99.90;;;;;;7388156;19;20149;-80
2022/10/30 03:11:28;;;;;;;10.70;5.20;;;15.80;99.90;;;;;;7389220;19;20521;-81
2022/10/30 03:13:54;;;;;;;10.75;4.57;;;16.00;99.90;;;;;;7391285;19;20157;-82
2022/10/30 03:16:22;;;;;;;10.52;5.00;;;16.10;99.90;;;;;;7392581;19;20571;-81
2022/10/30 03:18:49;;;;;;;8.35;4.50;;;16.00;99.90;;;;;;7389766;19;20807;-75
2022/10/30 03:21:18;;;;;;;8.13;4.10;;;15.90;99.90;;;;;;7389075;19;21007;-75
2022/10/30 03:23:44;;;;;;;7.47;4.00;;;15.80;99.90;;;;;;7391451;19;20614;-74
2022/10/30 03:26:10;;;;;;;10.85;4.38;;;15.90;99.90;;;;;;7389836;19;20158;-75
2022/10/30 03:28:36;;;;;;;7.63;3.50;;;15.90;99.90;;;;;;7384941;19;20479;-76
2022/10/30 03:31:05;;;;;;;15.23;4.22;;;16.10;99.90;;;;;;7391599;19;20134;-75
2022/10/30 03:33:31;;;;;;;8.20;3.85;;;16.20;99.90;;;;;;7390958;19;20139;-76
2022/10/30 03:35:57;;;;;;;8.90;3.90;;;16.10;99.90;;;;;;7390623;19;20214;-75
2022/10/30 03:38:23;;;;;;;8.60;3.58;;;15.90;99.90;;;;;;7389320;19;20157;-75
2022/10/30 03:40:49;;;;;;;11.43;4.28;;;16.00;99.90;;;;;;7387893;19;20135;-75
2022/10/30 03:43:15;;;;;;;10.68;4.03;;;16.10;99.90;;;;;;7390912;19;20135;-73
2022/10/30 03:45:46;;;;;;;8.82;3.70;;;16.00;99.90;;;;;;7388971;19;20145;-75
2022/10/30 03:48:12;;;;;;;7.90;3.80;;;16.00;99.90;;;;;;7390850;19;20145;-75
2022/10/30 03:50:37;;;;;;;8.95;4.47;;;15.80;99.90;;;;;;7393478;19;20595;-82
2022/10/30 03:53:06;;;;;;;8.20;3.70;;;15.50;99.90;;;;;;7396799;19;20146;-82
2022/10/30 03:55:32;;;;;;;7.20;3.95;;;15.30;99.90;;;;;;7395329;19;20150;-82
2022/10/30 03:57:58;;;;;;;11.25;4.30;;;15.40;99.90;;;;;;7396220;19;20134;-79
2022/10/30 04:00:23;;;;;;;9.88;4.38;;;15.70;99.90;;;;;;7393835;19;20134;-81
2022/10/30 04:02:51;;;;;;;10.00;4.10;;;15.50;99.90;;;;;;7395668;19;20174;-81
2022/10/30 04:05:19;;;;;;;12.32;3.85;;;15.60;99.90;;;;;;7389160;19;20149;-82
2022/10/30 04:07:46;;;;;;;8.60;4.68;;;15.70;99.90;;;;;;7390642;19;20150;-82
2022/10/30 04:10:12;;;;;;;10.00;3.90;;;15.90;99.90;;;;;;7388358;19;20138;-80
2022/10/30 04:12:38;;;;;;;8.07;4.15;;;16.00;99.90;;;;;;7388453;19;20154;-82
2022/10/30 04:15:06;;;;;;;9.60;3.50;;;16.10;99.90;;;;;;7387181;19;20169;-82
2022/10/30 04:17:33;;;;;;;7.00;3.83;;;16.10;99.90;;;;;;7388280;19;20145;-82
2022/10/30 04:19:58;;;;;;;6.70;3.72;;;16.00;99.90;;;;;;7386141;19;20634;-81
2022/10/30 04:22:24;;;;;;;5.32;3.28;;;16.10;99.90;;;;;;7388496;19;20135;-82
2022/10/30 04:24:50;;;;;;;7.65;3.45;;;16.00;99.90;;;;;;7386828;19;20485;-82
2022/10/30 04:27:16;;;;;;;8.85;3.08;;;15.50;99.90;;;;;;7387122;19;20150;-82
2022/10/30 04:29:42;;;;;;;7.38;2.97;;;15.40;99.90;;;;;;7387199;19;20139;-81
2022/10/30 04:32:11;;;;;;;6.95;3.55;;;15.50;99.90;;;;;;7386394;19;20209;-82
2022/10/30 04:34:38;;;;;;;11.02;3.72;;;15.40;99.90;;;;;;7386734;19;20145;-84
2022/10/30 04:37:07;;;;;;;11.20;4.90;;;15.60;99.90;;;;;;7389307;19;20546;-82
2022/10/30 04:39:33;;;;;;;9.13;4.18;;;15.90;99.90;;;;;;7388384;19;20138;-83
2022/10/30 04:41:58;;;;;;;7.30;3.78;;;15.60;99.90;;;;;;7386189;19;20178;-81
2022/10/30 04:44:24;;;;;;;12.43;4.20;;;15.60;99.90;;;;;;7388769;19;20141;-80
2022/10/30 04:46:51;;;;;;;10.48;3.58;;;15.60;99.90;;;;;;7387912;19;20542;-81
2022/10/30 04:49:17;;;;;;;6.95;3.35;;;15.60;99.90;;;;;;7388793;19;20206;-82
2022/10/30 04:51:45;;;;;;;7.07;3.72;;;15.10;99.90;;;;;;7388633;19;20146;-81
2022/10/30 04:54:10;;;;;;;10.27;3.55;;;15.30;99.90;;;;;;7386553;19;20202;-81
2022/10/30 04:56:36;;;;;;;7.25;3.17;;;15.50;99.90;;;;;;7386810;19;20176;-82
2022/10/30 04:59:03;;;;;;;6.20;3.30;;;15.70;99.90;;;;;;7388949;19;20158;-81
2022/10/30 05:01:29;;;;;;;5.60;2.97;;;15.80;99.90;;;;;;7386245;19;20141;-83
2022/10/30 05:03:57;;;;;;;9.85;3.28;;;15.90;99.90;;;;;;7386083;19;20561;-83
2022/10/30 05:06:29;;;;;;;6.10;2.65;;;15.80;99.90;;;;;;7383657;19;20508;-82
2022/10/30 05:08:55;;;;;;;8.35;2.92;;;15.80;99.90;;;;;;7387082;19;20160;-82
2022/10/30 05:11:21;;;;;;;9.00;3.85;;;15.80;99.90;;;;;;7386642;19;20147;-83
2022/10/30 05:13:47;;;;;;;6.47;3.00;;;15.80;99.90;;;;;;7388467;19;20138;-81
2022/10/30 05:16:13;;;;;;;8.65;2.92;;;16.00;99.90;;;;;;7385620;19;20623;-82
2022/10/30 05:18:38;;;;;;;6.40;3.33;;;15.70;99.90;;;;;;7387405;19;20170;-82
2022/10/30 05:21:04;;;;;;;5.63;2.35;;;15.70;99.90;;;;;;7386956;19;20254;-80
2022/10/30 05:23:30;;;;;;;4.50;2.78;;;15.60;99.90;;;;;;7388255;19;20138;-81
2022/10/30 05:25:58;;;;;;;6.07;3.05;;;15.50;99.90;;;;;;7386552;19;20564;-84
2022/10/30 05:28:24;;;;;;;5.53;2.53;;;15.70;99.90;;;;;;7385906;19;20162;-81
2022/10/30 05:30:52;;;;;;;8.48;2.95;;;15.70;99.90;;;;;;7385027;19;20154;-81
2022/10/30 05:33:18;;;;;;;6.63;2.80;;;15.60;99.90;;;;;;7388845;19;20174;-81
2022/10/30 05:35:44;;;;;;;10.05;2.70;;;15.80;99.90;;;;;;7394656;19;20143;-82
2022/10/30 05:38:09;;;;;;;6.25;3.20;;;15.80;99.90;;;;;;7394805;19;20155;-82
2022/10/30 05:40:35;;;;;;;8.95;3.03;;;16.00;99.90;;;;;;7395506;19;20147;-82
2022/10/30 05:43:02;;;;;;;7.47;2.90;;;15.70;99.90;;;;;;7393896;19;20155;-81
2022/10/30 05:45:28;;;;;;;5.45;3.35;;;15.90;99.90;;;;;;7394009;19;20146;-81
2022/10/30 05:47:58;;;;;;;5.85;3.30;;;15.90;99.90;;;;;;7393777;19;20142;-78
2022/10/30 05:50:25;;;;;;;7.72;3.83;;;15.80;99.90;;;;;;7393017;19;20143;-84
2022/10/30 05:53:02;;;;;;;7.57;3.42;;;15.80;99.90;;;;;;7398065;19;20134;-81
2022/10/30 05:55:28;;;;;;;5.55;2.97;;;15.90;99.90;;;;;;7387098;19;20135;-82
2022/10/30 05:57:59;;;;;;;4.88;3.55;;;15.90;99.90;;;;;;7395402;19;20149;-81
2022/10/30 06:00:27;;;;;;;6.95;3.42;;;15.80;99.90;;;;;;7391397;19;20143;-80
2022/10/30 06:02:59;;;;;;;6.75;3.53;;;15.80;99.90;;;;;;7391153;19;20639;-82
2022/10/30 06:05:25;;;;;;;6.63;3.45;;;15.90;99.90;;;;;;7395282;19;20634;-82
2022/10/30 06:07:55;;;;;;;8.77;3.58;;;15.90;99.90;;;;;;7393412;19;20194;-84
2022/10/30 06:10:21;;;;;;;6.85;3.10;;;15.90;99.90;;;;;;7393045;19;20138;-82
2022/10/30 06:12:58;;;;;;;7.68;3.65;;;15.80;99.90;;;;;;7393612;19;20127;-81
2022/10/30 06:15:25;;;;;;;9.73;3.88;;;15.80;99.90;;;;;;7394469;19;20134;-82
2022/10/30 06:17:50;;;;;;;9.32;3.67;;;15.90;99.90;;;;;;7394067;19;20990;-82
2022/10/30 06:20:18;;;;;;;8.10;3.45;;;15.70;99.90;;;;;;7392445;19;20180;-82
2022/10/30 06:23:04;;;;;;;6.35;3.45;;;15.70;99.90;;;;;;7395117;19;20158;-82
2022/10/30 06:25:32;;;;;;;8.07;4.13;;;15.80;99.90;;;;;;7396437;19;20580;-83
2022/10/30 06:27:58;;;;;;;7.38;4.15;;;15.80;99.90;;;;;;7394368;19;20162;-81
2022/10/30 06:30:25;;;;;;;9.40;4.30;;;15.70;99.90;;;;;;7392166;19;20142;-79
2022/10/30 06:33:01;;;;;;;7.45;4.45;;;15.80;99.90;;;;;;7392584;19;20171;-81
2022/10/30 06:35:28;;;;;;;8.98;4.18;;;15.80;99.90;;;;;;7395043;19;20138;-82
2022/10/30 06:37:55;;;;;;;7.22;3.83;;;15.80;99.90;;;;;;7393277;19;20146;-82
2022/10/30 06:40:22;;;;;;;7.35;3.42;;;15.60;99.90;;;;;;7394416;19;20149;-79
2022/10/30 06:42:49;;;;;;;13.35;3.97;;;15.30;99.90;;;;;;7392231;19;20131;-81
2022/10/30 06:45:16;;;;;;;8.77;3.50;;;15.50;99.90;;;;;;7391835;19;20596;-81
2022/10/30 06:47:43;;;;;;;7.82;3.60;;;15.30;99.90;;;;;;7395450;19;20146;-81
2022/10/30 06:50:17;;;;;;;8.40;4.40;;;15.50;99.90;;;;;;7396183;19;20130;-80
2022/10/30 06:52:47;;;;;;;6.43;4.15;;;15.60;99.90;;;;;;7392383;19;20138;-78
2022/10/30 06:55:13;;;;;;;8.82;4.22;;;15.70;99.90;;;;;;7391178;19;20612;-80
2022/10/30 06:57:39;;;;;;;9.48;4.22;;;15.30;99.90;;;;;;7389115;19;20139;-79
2022/10/30 07:00:06;;;;;;;6.40;4.00;;;15.40;99.90;;;;;;7386927;19;20690;-81
2022/10/30 07:02:32;;;;;;;8.85;4.15;;;15.60;99.90;;;;;;7388085;19;20131;-81
2022/10/30 07:04:57;;;;;;;6.90;4.10;;;15.20;99.90;;;;;;7392691;19;20143;-81
2022/10/30 07:07:23;;;;;;;6.72;3.38;;;15.30;99.90;;;;;;7392819;19;20138;-80
2022/10/30 07:09:49;;;;;;;11.13;4.13;;;15.50;99.90;;;;;;7393534;19;20130;-80
2022/10/30 07:12:15;;;;;;;7.47;3.90;;;15.50;99.90;;;;;;7394382;19;20580;-77
2022/10/30 07:14:41;;;;;;;7.32;3.90;;;15.70;99.90;;;;;;7392244;19;20162;-77
2022/10/30 07:17:07;;;;;;;7.45;3.97;;;15.80;99.90;;;;;;7388994;19;20130;-77
2022/10/30 07:19:32;;;;;;;10.43;4.30;;;15.80;99.90;;;;;;7387802;19;20161;-76
2022/10/30 07:22:00;;;;;;;13.60;4.47;;;15.90;99.90;;;;;;7387776;19;21530;-78
2022/10/30 07:24:25;;;;;;;10.15;4.28;;;15.80;99.90;;;;;;7390145;19;20154;-78
2022/10/30 07:26:51;;;;;;;9.65;5.07;;;15.90;99.90;;;;;;7390857;19;20130;-78
2022/10/30 07:29:17;;;;;;;12.85;5.75;;;15.80;99.90;;;;;;7389264;19;20479;-77
2022/10/30 07:31:45;;;;;;;11.02;4.45;;;15.90;99.90;;;;;;7387853;19;20134;-78
2022/10/30 07:34:11;;;;;;;9.73;4.30;;;15.80;99.90;;;;;;7391404;19;20477;-77
2022/10/30 07:36:37;;;;;;;9.60;3.85;;;15.20;99.90;;;;;;7393708;19;20172;-77
2022/10/30 07:39:02;;;;;;;7.45;3.90;;;15.40;99.90;;;;;;7391847;19;20329;-79
2022/10/30 07:41:28;;;;;;;7.38;3.85;;;15.60;99.90;;;;;;7388268;19;20163;-77
2022/10/30 07:43:54;;;;;;;6.68;3.80;;;15.70;99.90;;;;;;7391496;19;20129;-77
2022/10/30 07:46:19;;;;;;;10.48;4.18;;;15.70;99.90;;;;;;7392568;19;20143;-77
2022/10/30 07:48:45;;;;;;;7.72;3.85;;;15.70;99.90;;;;;;7392577;19;20149;-76
2022/10/30 07:51:14;;;;;;;8.07;4.07;;;15.70;99.90;;;;;;7391905;19;20218;-77
2022/10/30 07:53:39;;;;;;;6.45;3.78;;;15.80;99.90;;;;;;7392249;19;20138;-76
2022/10/30 07:56:05;;;;;;;9.85;4.10;;;15.80;99.90;;;;;;7392176;19;20138;-77
2022/10/30 07:58:31;;;;;;;9.30;4.15;;;15.60;99.90;;;;;;7391706;19;20210;-78
2022/10/30 08:01:02;;;;;;;9.13;3.47;;;15.80;99.90;;;;;;7394119;19;20214;-76
2022/10/30 08:03:28;;;;;;;10.27;4.00;;;15.50;99.90;;;;;;7388577;19;20165;-77
2022/10/30 08:05:53;;;;;;;7.63;3.88;;;15.70;99.90;;;;;;7390620;19;20588;-77
2022/10/30 08:08:19;;;;;;;8.20;4.10;;;15.80;99.90;;;;;;7388434;19;20135;-79
2022/10/30 08:10:45;;;;;;;8.27;3.85;;;15.60;99.90;;;;;;7391036;19;20146;-79
2022/10/30 08:13:10;;;;;;;7.20;3.78;;;15.40;99.90;;;;;;7391622;19;20623;-82
2022/10/30 08:15:38;;;;;;;12.52;4.15;;;15.40;99.90;;;;;;7391512;19;20158;-79
2022/10/30 08:18:07;;;;;;;9.07;4.65;;;15.30;99.90;;;;;;7392824;19;20161;-81
2022/10/30 08:20:32;;;;;;;8.40;4.00;;;15.40;99.90;;;;;;7390777;19;20915;-81
2022/10/30 08:22:58;;;;;;;10.85;4.13;;;15.40;99.90;;;;;;7397367;19;20150;-81
2022/10/30 08:25:28;;;;;;;9.35;3.90;;;15.30;99.90;;;;;;7389064;19;20186;-78
2022/10/30 08:28:04;;;;;;;7.00;4.10;;;15.20;99.90;;;;;;7394265;19;20198;-80
2022/10/30 08:30:33;;;;;;;7.30;3.95;;;15.30;99.90;;;;;;7395596;19;20523;-76
2022/10/30 08:33:01;;;;;;;6.82;3.75;;;15.30;99.90;;;;;;7386033;19;20139;-77
2022/10/30 08:35:27;;;;;;;10.32;4.22;;;15.30;99.90;;;;;;7392608;19;20127;-78
2022/10/30 08:37:55;;;;;;;10.10;4.60;;;15.40;99.90;;;;;;7396198;19;20138;-80
2022/10/30 08:40:20;;;;;;;9.95;4.88;;;15.80;99.90;;;;;;7391158;19;20151;-78
2022/10/30 08:42:51;;;;;;;10.73;5.75;;;15.90;99.90;;;;;;7391781;19;20549;-78
2022/10/30 08:45:17;;;;;;;6.90;4.50;;;16.30;99.90;;;;;;7393614;19;20492;-76
2022/10/30 08:47:42;;;;;;;9.75;5.20;;;16.40;99.90;;;;;;7390555;19;20138;-79
2022/10/30 08:50:08;;;;;;;5.97;3.97;;;16.50;99.90;;;;;;7391157;19;20146;-77
2022/10/30 08:52:34;;;;;;;7.00;3.83;;;16.70;99.90;;;;;;7390994;19;20134;-76
2022/10/30 08:55:00;;;;;;;6.75;3.30;;;16.80;99.90;;;;;;7388449;19;20146;-78
2022/10/30 08:57:26;;;;;;;15.00;4.13;;;16.80;99.90;;;;;;7388903;19;20154;-79
2022/10/30 08:59:52;;;;;;;6.85;3.60;;;16.90;99.90;;;;;;7386994;19;20799;-77
2022/10/30 09:02:17;;;;;;;11.07;3.88;;;17.00;99.90;;;;;;7389545;19;20129;-79
2022/10/30 09:04:43;;;;;;;7.57;4.00;;;16.90;99.90;;;;;;7386742;19;20202;-78
2022/10/30 09:07:09;;;;;;;9.27;5.03;;;17.00;99.90;;;;;;7390504;19;20201;-78
2022/10/30 09:09:35;;;;;;;9.25;4.15;;;17.10;99.90;;;;;;7391307;19;20150;-77
2022/10/30 09:12:00;;;;;;;10.45;4.10;;;17.00;99.90;;;;;;7397181;19;20155;-78
2022/10/30 09:14:26;;;;;;;7.90;3.72;;;16.90;99.90;;;;;;7395166;19;20604;-80
2022/10/30 09:16:53;;;;;;;6.13;3.97;;;16.90;99.90;;;;;;7395131;19;20943;-76
2022/10/30 09:19:19;;;;;;;7.45;3.80;;;17.00;99.90;;;;;;7395872;19;20466;-77
2022/10/30 09:21:45;;;;;;;6.22;3.58;;;17.10;99.90;;;;;;7394042;19;20146;-79
2022/10/30 09:24:11;;;;;;;8.32;3.92;;;17.20;99.90;;;;;;7392490;19;20133;-78
2022/10/30 09:26:37;;;;;;;11.00;5.05;;;17.30;99.90;;;;;;7394574;19;20146;-78
2022/10/30 09:29:03;;;;;;;6.07;3.97;;;17.30;99.90;;;;;;7395375;19;20599;-77
2022/10/30 09:31:28;;;;;;;6.70;3.42;;;17.10;99.90;;;;;;7395168;19;20130;-78
2022/10/30 09:33:54;;;;;;;9.40;4.10;;;16.90;99.90;;;;;;7395687;19;20139;-79
2022/10/30 09:36:20;;;;;;;5.93;3.80;;;17.00;99.90;;;;;;7394624;19;20147;-79
2022/10/30 09:38:45;;;;;;;6.78;3.33;;;17.20;99.90;;;;;;7395497;19;20139;-78
2022/10/30 09:41:56;;;;;;;9.02;3.28;;;17.40;99.90;;;;;;7396001;19;20134;-78
2022/10/30 09:44:40;;;;;;;6.45;3.50;;;17.60;99.90;;;;;;7393974;19;20214;-78
2022/10/30 09:47:44;;;;;;;5.10;3.13;;;17.80;99.90;;;;;;7395813;19;20153;-77
2022/10/30 09:50:28;;;;;;;12.48;4.47;;;17.90;99.90;;;;;;7394065;19;20157;-78
2022/10/30 09:53:24;;;;;;;8.63;4.65;;;18.10;99.90;;;;;;7393926;19;20851;-76
2022/10/30 09:56:03;;;;;;;5.85;3.83;;;18.20;99.90;;;;;;7394920;19;20154;-76
2022/10/30 09:58:41;;;;;;;8.02;3.28;;;18.30;99.90;;;;;;7395554;19;20139;-77
2022/10/30 10:01:38;;;;;;;7.32;3.30;;;18.40;99.90;;;;;;7394794;19;20130;-78
2022/10/30 10:04:27;;;;;;;10.80;4.97;;;18.30;99.90;;;;;;7391678;19;20182;-77
2022/10/30 10:07:01;;;;;;;9.02;3.80;;;18.30;99.90;;;;;;7396415;19;20919;-79
2022/10/30 10:09:30;;;;;;;11.27;4.22;;;18.30;99.90;;;;;;7393525;19;20559;-79
2022/10/30 10:12:22;;;;;;;7.28;3.60;;;18.40;99.90;;;;;;7393229;19;20515;-78
2022/10/30 10:14:48;;;;;;;13.50;3.60;;;18.40;99.90;;;;;;7391261;19;20218;-78
2022/10/30 10:17:24;;;;;;;10.98;4.32;;;18.60;99.90;;;;;;7390959;19;20142;-79
2022/10/30 10:20:01;;;;;;;8.18;4.63;;;18.80;99.90;;;;;;7387937;19;20151;-79
2022/10/30 10:22:41;;;;;;;9.25;3.97;;;18.70;99.90;;;;;;7392025;19;20142;-79
2022/10/30 10:25:13;;;;;;;9.07;4.00;;;18.80;99.90;;;;;;7390497;19;20189;-78
2022/10/30 10:27:47;;;;;;;7.20;3.80;;;18.90;99.90;;;;;;7390877;19;20198;-77
2022/10/30 10:30:19;;;;;;;11.75;4.00;;;18.80;99.90;;;;;;7388080;19;20452;-78
2022/10/30 10:33:11;;;;;;;10.70;4.55;;;19.10;99.90;;;;;;7389858;19;20154;-78
2022/10/30 10:35:52;;;;;;;6.13;3.58;;;19.00;99.90;;;;;;7390456;19;20161;-77
2022/10/30 10:38:38;;;;;;;7.65;3.58;;;19.00;99.90;;;;;;7389271;19;20167;-77
2022/10/30 10:41:32;;;;;;;10.52;3.67;;;19.30;99.90;;;;;;7392560;19;20146;-78
2022/10/30 10:44:07;;;;;;;8.27;3.80;;;19.50;99.90;;;;;;7396019;19;20135;-78
2022/10/30 10:46:42;;;;;;;7.47;4.07;;;19.40;99.90;;;;;;7395142;19;20136;-78
2022/10/30 10:49:20;;;;;;;8.60;3.97;;;19.50;99.90;;;;;;7395851;19;20126;-78
2022/10/30 10:51:54;;;;;;;5.20;3.40;;;19.70;99.90;;;;;;7389584;19;20150;-77
2022/10/30 10:54:26;;;;;;;8.23;3.67;;;19.80;99.90;;;;;;7394500;19;20135;-78
2022/10/30 10:56:52;;;;;;;9.30;4.28;;;19.90;99.90;;;;;;7395922;19;20161;-77
2022/10/30 10:59:24;;;;;;;9.45;4.40;;;20.00;99.90;;;;;;7400916;19;20147;-79
2022/10/30 11:02:32;;;;;;;12.27;4.25;;;20.00;99.90;;;;;;7397039;19;20147;-78
2022/10/30 11:05:35;;;;;;;9.15;4.07;;;20.00;99.90;;;;;;7400930;19;20147;-79
2022/10/30 11:08:08;;;;;;;9.35;3.50;;;20.10;99.90;;;;;;7398363;19;20923;-77
2022/10/30 11:10:34;;;;;;;4.80;3.00;;;20.10;99.90;;;;;;7395792;19;20153;-78
2022/10/30 11:13:00;;;;;;;7.30;3.25;;;20.00;99.90;;;;;;7393441;19;20503;-79
2022/10/30 11:15:35;;;;;;;11.30;3.72;;;20.00;99.90;;;;;;7390409;19;20154;-80
2022/10/30 11:18:04;;;;;;;13.00;3.70;;;20.00;99.90;;;;;;7391812;19;20142;-77
2022/10/30 11:20:46;;;;;;;11.25;4.13;;;20.10;99.90;;;;;;7389740;19;20161;-79
2022/10/30 11:23:32;;;;;;;7.85;4.00;;;20.20;99.90;;;;;;7392691;19;20154;-80
2022/10/30 11:25:58;;;;;;;8.38;3.95;;;20.30;99.90;;;;;;7396354;19;20552;-81
2022/10/30 11:28:41;;;;;;;7.10;3.85;;;20.30;99.90;;;;;;7393437;19;20202;-80
2022/10/30 11:31:17;;;;;;;10.60;4.10;;;20.60;99.90;;;;;;7392339;19;20138;-80
2022/10/30 11:33:43;;;;;;;10.65;3.70;;;20.70;99.90;;;;;;7392199;19;20172;-80
2022/10/30 11:36:09;;;;;;;7.68;3.60;;;20.70;99.90;;;;;;7390423;19;20664;-79
2022/10/30 11:38:35;;;;;;;10.23;3.92;;;20.80;99.90;;;;;;7389476;19;20139;-78
2022/10/30 11:41:01;;;;;;;7.85;4.30;;;20.80;99.90;;;;;;7386111;19;20143;-81
2022/10/30 11:43:27;;;;;;;9.02;3.88;;;20.90;99.90;;;;;;7389895;19;20540;-80
2022/10/30 11:45:53;;;;;;;5.60;2.80;;;21.00;99.90;;;;;;7391349;19;20620;-80
2022/10/30 11:48:28;;;;;;;8.05;3.88;;;21.00;99.90;;;;;;7389439;19;20139;-79
2022/10/30 11:50:59;;;;;;;6.63;3.53;;;21.00;99.90;;;;;;7388336;19;20169;-78
2022/10/30 11:53:31;;;;;;;4.97;3.22;;;21.10;99.90;;;;;;7389376;19;20174;-78
2022/10/30 11:55:57;;;;;;;9.20;3.65;;;21.20;99.90;;;;;;7388326;19;20134;-77
2022/10/30 11:58:28;;;;;;;7.95;3.60;;;21.30;99.90;;;;;;7389433;19;20149;-78
2022/10/30 12:01:06;;;;;;;7.13;3.45;;;21.20;99.90;;;;;;7388854;19;20218;-78
2022/10/30 12:03:40;;;;;;;9.38;4.10;;;21.20;99.90;;;;;;7388004;19;20146;-77
2022/10/30 12:06:09;;;;;;;8.52;4.78;;;21.00;99.90;;;;;;7391494;19;20149;-77
2022/10/30 12:08:34;;;;;;;6.97;3.67;;;20.90;99.90;;;;;;7390343;19;20147;-77
2022/10/30 12:11:03;;;;;;;13.85;3.10;;;20.80;99.90;;;;;;7389013;19;20170;-79
2022/10/30 12:13:38;;;;;;;8.40;3.70;;;20.70;99.90;;;;;;7389250;19;20195;-76
2022/10/30 12:16:18;;;;;;;10.15;3.75;;;20.70;99.90;;;;;;7388610;19;20146;-77
2022/10/30 12:18:59;;;;;;;10.77;3.97;;;20.60;99.90;;;;;;7386205;19;20158;-76
2022/10/30 12:21:27;;;;;;;5.55;3.20;;;20.50;99.90;;;;;;7383649;19;20155;-79
2022/10/30 12:24:00;;;;;;;5.50;3.00;;;20.50;99.90;;;;;;7386316;19;20150;-77
2022/10/30 12:26:28;;;;;;;9.45;3.45;;;20.50;99.90;;;;;;7386945;19;20173;-79
2022/10/30 12:29:00;;;;;;;8.52;4.03;;;20.50;99.90;;;;;;7389356;19;20134;-78
2022/10/30 12:31:42;;;;;;;8.77;4.07;;;20.60;99.90;;;;;;7381032;19;20172;-78
2022/10/30 12:34:32;;;;;;;6.80;2.85;;;20.60;99.90;;;;;;7383489;19;20130;-78
2022/10/30 12:37:17;;;;;;;9.77;3.75;;;20.60;99.90;;;;;;7377975;19;20165;-76
2022/10/30 12:39:57;;;;;;;6.60;3.35;;;20.70;99.90;;;;;;7380067;19;20171;-78
2022/10/30 12:42:24;;;;;;;8.88;3.70;;;20.70;99.90;;;;;;7383456;19;20128;-78
2022/10/30 12:45:06;;;;;;;6.05;3.45;;;20.70;99.90;;;;;;7382775;19;20721;-77
2022/10/30 12:47:40;;;;;;;6.53;3.63;;;20.80;99.90;;;;;;7389775;19;20163;-77
2022/10/30 12:50:25;;;;;;;8.48;3.63;;;20.80;99.90;;;;;;7389788;19;20138;-77
2022/10/30 12:52:52;;;;;;;7.30;3.30;;;20.80;99.90;;;;;;7387897;19;20138;-78
2022/10/30 12:55:23;;;;;;;10.10;3.20;;;20.90;99.90;;;;;;7387884;19;20154;-78
2022/10/30 12:58:16;;;;;;;9.77;3.70;;;20.90;99.90;;;;;;7388117;19;20143;-77